createdAt,value
2023-01-08T00:02:00.587Z,100223.00
2023-01-08T00:04:32.804Z,100218.56
2023-01-08T00:07:05.742Z,100214.16
2023-01-08T00:09:35.998Z,100214.38
2023-01-08T00:12:06.382Z,100215.94
2023-01-08T00:14:36.883Z,100206.28
2023-01-08T00:17:07.170Z,100209.75
2023-01-08T00:19:37.375Z,100204.81
2023-01-08T00:22:10.224Z,100196.28
2023-01-08T00:24:40.469Z,100200.69
2023-01-08T00:27:10.659Z,100195.28
2023-01-08T00:29:40.866Z,100194.22
2023-01-08T00:32:11.100Z,100196.09
2023-01-08T00:34:44.254Z,100190.75
2023-01-08T00:37:19.106Z,100187.69
2023-01-08T00:39:50.319Z,100195.78
2023-01-08T00:42:20.483Z,100184.56
2023-01-08T00:44:50.631Z,100182.25
2023-01-08T00:47:20.851Z,100186.56
2023-01-08T00:49:51.145Z,100189.34
2023-01-08T00:52:23.954Z,100183.25
2023-01-08T00:54:54.156Z,100185.72
2023-01-08T00:57:24.492Z,100191.72
2023-01-08T00:59:58.528Z,100191.78
2023-01-08T01:02:28.829Z,100194.94
2023-01-08T01:04:59.220Z,100191.16
2023-01-08T01:07:32.098Z,100192.09
2023-01-08T01:10:03.488Z,100196.22
2023-01-08T01:12:34.233Z,100194.44
2023-01-08T01:15:04.539Z,100196.03
2023-01-08T01:17:34.744Z,100191.59
2023-01-08T01:20:05.076Z,100196.03
2023-01-08T01:22:38.348Z,100194.44
2023-01-08T01:25:09.249Z,100202.31
2023-01-08T01:27:39.635Z,100202.22
2023-01-08T01:30:11.401Z,100197.81
2023-01-08T01:32:41.716Z,100185.63
2023-01-08T01:35:12.523Z,100193.78
2023-01-08T01:37:48.459Z,100181.41
2023-01-08T01:40:18.778Z,100184.88
2023-01-08T01:42:48.973Z,100181.19
2023-01-08T01:45:22.548Z,100185.50
2023-01-08T01:47:58.813Z,100177.94
2023-01-08T01:50:32.516Z,100195.06
2023-01-08T01:53:11.050Z,100184.56
2023-01-08T01:55:44.240Z,100182.13
2023-01-08T01:58:17.202Z,100186.66
2023-01-08T02:00:47.803Z,100192.56
2023-01-08T02:03:28.052Z,100185.06
2023-01-08T02:06:03.705Z,100195.47
2023-01-08T02:08:49.755Z,100187.69
2023-01-08T02:11:28.925Z,100189.38
2023-01-08T02:14:03.538Z,100190.41
2023-01-08T02:16:40.820Z,100193.88
2023-01-08T02:19:19.747Z,100195.56
2023-01-08T02:22:02.987Z,100180.53
2023-01-08T02:24:49.664Z,100172.34
2023-01-08T02:27:24.078Z,100172.34
2023-01-08T02:29:56.548Z,100170.66
2023-01-08T02:32:29.661Z,100170.88
2023-01-08T02:35:02.782Z,100169.19
2023-01-08T02:37:33.273Z,100162.25
2023-01-08T02:40:13.419Z,100151.00
2023-01-08T02:42:51.081Z,100141.16
2023-01-08T02:45:33.515Z,100141.16
2023-01-08T02:48:09.846Z,100147.19
2023-01-08T02:50:47.559Z,100137.31
2023-01-08T02:53:21.551Z,100127.66
2023-01-08T02:55:53.003Z,100126.72
2023-01-08T02:58:28.057Z,100131.13
2023-01-08T03:04:11.039Z,100130.47
2023-01-08T03:06:44.086Z,100128.78
2023-01-08T03:09:16.817Z,100113.97
2023-01-08T03:11:54.554Z,100115.97
2023-01-08T03:14:33.100Z,100108.41
2023-01-08T03:17:09.847Z,100103.72
2023-01-08T03:19:44.994Z,100116.13
2023-01-08T03:22:18.887Z,100107.03
2023-01-08T03:24:52.992Z,100106.53
2023-01-08T03:27:27.507Z,100105.78
2023-01-08T03:30:02.523Z,100103.94
2023-01-08T03:32:34.973Z,100100.00
2023-01-08T03:35:07.048Z,100100.94
2023-01-08T03:37:41.740Z,100098.09
2023-01-08T03:40:15.818Z,100108.31
2023-01-08T03:42:45.759Z,100099.06
2023-01-08T03:45:18.598Z,100100.00
2023-01-08T03:47:50.142Z,100099.63
2023-01-08T03:50:25.942Z,100102.06
2023-01-08T03:52:56.160Z,100097.56
2023-01-08T03:55:26.346Z,100095.47
2023-01-08T03:57:56.848Z,100092.22
2023-01-08T04:00:30.129Z,100093.16
2023-01-08T04:03:00.387Z,100083.00
2023-01-08T04:05:30.589Z,100091.22
2023-01-08T04:08:03.936Z,100089.88
2023-01-08T04:10:34.255Z,100094.00
2023-01-08T04:13:04.469Z,100096.31
2023-01-08T04:15:37.815Z,100074.88
2023-01-08T04:18:08.107Z,100081.81
2023-01-08T04:20:38.323Z,100090.34
2023-01-08T04:23:08.487Z,100094.75
2023-01-08T04:25:40.977Z,100100.63
2023-01-08T04:28:11.274Z,100104.84
2023-01-08T04:30:44.176Z,100095.91
2023-01-08T04:33:14.486Z,100104.50
2023-01-08T04:35:44.688Z,100105.25
2023-01-08T04:38:14.911Z,100105.25
2023-01-08T04:40:45.267Z,100110.41
2023-01-08T04:43:15.452Z,100079.38
2023-01-08T04:45:48.208Z,100113.03
2023-01-08T04:48:18.555Z,100103.47
2023-01-08T04:50:48.763Z,100104.41
2023-01-08T04:53:18.977Z,100104.50
2023-01-08T04:55:49.164Z,100105.78
2023-01-08T04:58:19.367Z,100097.16
2023-01-08T05:00:52.167Z,100103.75
2023-01-08T05:03:22.336Z,100096.28
2023-01-08T05:05:54.831Z,100091.63
2023-01-08T05:08:25.049Z,100099.72
2023-01-08T05:10:55.594Z,100091.75
2023-01-08T05:13:25.849Z,100092.03
2023-01-08T05:16:02.398Z,100090.06
2023-01-08T05:18:32.928Z,100082.38
2023-01-08T05:21:05.183Z,100082.66
2023-01-08T05:23:36.449Z,100085.56
2023-01-08T05:26:08.948Z,100103.00
2023-01-08T05:28:39.129Z,100100.28
2023-01-08T05:31:12.265Z,100092.69
2023-01-08T05:33:42.635Z,100090.88
2023-01-08T05:36:14.902Z,100082.47
2023-01-08T05:38:45.487Z,100096.06
2023-01-08T05:41:15.770Z,100089.88
2023-01-08T05:43:46.060Z,100084.94
2023-01-08T05:46:18.884Z,100090.19
2023-01-08T05:48:49.155Z,100083.56
2023-01-08T05:51:19.348Z,100083.56
2023-01-08T05:53:49.543Z,100079.16
2023-01-08T05:56:19.695Z,100075.78
2023-01-08T05:58:49.875Z,100074.09
2023-01-08T06:01:22.752Z,100069.16
2023-01-08T06:03:53.036Z,100079.84
2023-01-08T06:06:23.175Z,100075.25
2023-01-08T06:08:53.350Z,100078.50
2023-01-08T06:11:26.458Z,100078.50
2023-01-08T06:13:56.780Z,100081.88
2023-01-08T06:16:29.595Z,100076.38
2023-01-08T06:18:59.771Z,100079.72
2023-01-08T06:21:29.956Z,100080.09
2023-01-08T06:24:00.141Z,100083.09
2023-01-08T06:26:30.379Z,100092.00
2023-01-08T06:29:00.618Z,100092.84
2023-01-08T06:31:33.558Z,100081.63
2023-01-08T06:34:03.829Z,100084.22
2023-01-08T06:36:34.004Z,100087.78
2023-01-08T06:39:04.203Z,100087.34
2023-01-08T06:41:34.332Z,100086.22
2023-01-08T06:44:05.094Z,100099.31
2023-01-08T06:46:40.500Z,100095.94
2023-01-08T06:49:11.146Z,100093.13
2023-01-08T06:51:41.285Z,100092.69
2023-01-08T06:54:13.503Z,100089.97
2023-01-08T06:56:53.347Z,100084.53
2023-01-08T06:59:24.897Z,100089.75
2023-01-08T07:01:57.893Z,100097.59
2023-01-08T07:04:28.464Z,100107.13
2023-01-08T07:06:59.057Z,100103.38
2023-01-08T07:09:29.415Z,100099.91
2023-01-08T07:11:59.586Z,100103.91
2023-01-08T07:14:29.812Z,100103.06
2023-01-08T07:17:02.549Z,100098.47
2023-01-08T07:19:32.773Z,100105.78
2023-01-08T07:22:02.992Z,100104.09
2023-01-08T07:24:33.190Z,100096.75
2023-01-08T07:27:03.408Z,100086.69
2023-01-08T07:29:36.495Z,100092.16
2023-01-08T07:32:11.779Z,100093.63
2023-01-08T07:34:42.015Z,100097.69
2023-01-08T07:37:14.363Z,100109.28
2023-01-08T07:39:44.711Z,100109.94
2023-01-08T07:42:14.932Z,100100.28
2023-01-08T07:44:45.098Z,100116.88
2023-01-08T07:47:17.897Z,100109.28
2023-01-08T07:49:48.245Z,100103.56
2023-01-08T07:52:18.425Z,100108.53
2023-01-08T07:54:48.633Z,100109.00
2023-01-08T07:57:18.851Z,100101.13
2023-01-08T07:59:49.063Z,100115.94
2023-01-08T08:02:21.981Z,100123.97
2023-01-08T08:04:52.355Z,100120.34
2023-01-08T08:07:22.589Z,100110.03
2023-01-08T08:09:52.700Z,100111.09
2023-01-08T08:12:23.020Z,100113.16
2023-01-08T08:14:53.179Z,100099.84
2023-01-08T08:17:27.112Z,100095.53
2023-01-08T08:19:57.169Z,100105.00
2023-01-08T08:22:27.547Z,100112.28
2023-01-08T08:24:57.748Z,100105.53
2023-01-08T08:27:28.017Z,100109.22
2023-01-08T08:29:58.363Z,100106.38
2023-01-08T08:32:31.184Z,100115.66
2023-01-08T08:35:01.456Z,100115.75
2023-01-08T08:37:31.722Z,100113.31
2023-01-08T08:40:01.896Z,100105.66
2023-01-08T08:42:32.254Z,100107.88
2023-01-08T08:45:02.466Z,100108.91
2023-01-08T08:47:35.862Z,100111.84
2023-01-08T08:50:06.212Z,100113.72
2023-01-08T08:52:37.684Z,100122.84
2023-01-08T08:55:08.809Z,100116.41
2023-01-08T08:57:39.063Z,100100.41
2023-01-08T09:00:10.801Z,100108.19
2023-01-08T09:02:43.992Z,100089.66
2023-01-08T09:05:15.166Z,100095.91
2023-01-08T09:07:45.390Z,100094.50
2023-01-08T09:10:15.743Z,100084.94
2023-01-08T09:12:45.980Z,100085.53
2023-01-08T09:15:16.149Z,100089.19
2023-01-08T09:17:49.010Z,100085.63
2023-01-08T09:20:19.459Z,100088.81
2023-01-08T09:22:49.969Z,100076.38
2023-01-08T09:25:20.648Z,100076.00
2023-01-08T09:27:50.969Z,100073.53
2023-01-08T09:30:21.456Z,100063.72
2023-01-08T09:32:54.380Z,100058.00
2023-01-08T09:35:24.565Z,100059.66
2023-01-08T09:37:55.004Z,100058.53
2023-01-08T09:40:31.289Z,100055.75
2023-01-08T09:43:07.538Z,100046.22
2023-01-08T09:45:41.932Z,100038.50
2023-01-08T09:48:20.490Z,100040.31
2023-01-08T09:50:51.060Z,100042.44
2023-01-08T09:53:24.107Z,100036.75
2023-01-08T09:56:09.825Z,100046.56
2023-01-08T09:58:42.764Z,100032.41
2023-01-08T10:01:16.973Z,100036.19
2023-01-08T10:03:53.659Z,100027.19
2023-01-08T10:06:28.693Z,100025.84
2023-01-08T10:08:59.133Z,100024.13
2023-01-08T10:11:36.371Z,100017.75
2023-01-08T10:14:09.477Z,100022.28
2023-01-08T10:16:41.102Z,100025.34
2023-01-08T10:19:14.162Z,100014.28
2023-01-08T10:21:47.050Z,100015.69
2023-01-08T10:24:20.056Z,100009.06
2023-01-08T10:26:50.320Z,100006.25
2023-01-08T10:29:22.286Z,99995.63
2023-01-08T10:31:55.828Z,99999.59
2023-01-08T10:34:35.602Z,100001.28
2023-01-08T10:37:18.245Z,99994.78
2023-01-08T10:39:50.447Z,99981.09
2023-01-08T10:42:23.164Z,99987.31
2023-01-08T10:45:00.106Z,99984.47
2023-01-08T10:47:33.794Z,99966.19
2023-01-08T10:50:08.628Z,99973.44
2023-01-08T10:52:39.169Z,99969.75
2023-01-08T10:55:24.305Z,99960.94
2023-01-08T10:58:02.616Z,99951.59
2023-01-08T11:00:34.390Z,99958.09
2023-01-08T11:03:07.164Z,99951.59
2023-01-08T11:05:46.114Z,99951.91
2023-01-08T11:08:22.922Z,99941.50
2023-01-08T11:10:57.891Z,99943.81
2023-01-08T11:13:29.111Z,99934.78
2023-01-08T11:16:11.345Z,99944.75
2023-01-08T11:18:48.367Z,99930.44
2023-01-08T11:21:26.845Z,99931.78
2023-01-08T11:24:18.733Z,99922.53
2023-01-08T11:26:52.234Z,99938.00
2023-01-08T11:29:27.506Z,99926.56
2023-01-08T11:32:04.661Z,99918.75
2023-01-08T11:34:41.945Z,99916.53
2023-01-08T11:37:22.579Z,99922.75
2023-01-08T11:39:54.229Z,99928.31
2023-01-08T11:42:43.271Z,99915.91
2023-01-08T11:45:28.657Z,99906.25
2023-01-08T11:48:16.237Z,99903.19
2023-01-08T11:50:57.429Z,99905.72
2023-01-08T11:53:35.088Z,99899.09
2023-01-08T11:56:19.403Z,99895.28
2023-01-08T11:59:03.578Z,99892.50
2023-01-08T12:01:55.845Z,99892.06
2023-01-08T12:05:07.367Z,99882.69
2023-01-08T12:07:43.965Z,99891.31
2023-01-08T12:10:33.325Z,99878.00
2023-01-08T12:13:16.220Z,99875.38
2023-01-08T12:16:03.962Z,99886.69
2023-01-08T12:18:48.853Z,99881.91
2023-01-08T12:21:29.193Z,99876.19
2023-01-08T12:24:25.545Z,99867.59
2023-01-08T12:27:08.735Z,99859.44
2023-01-08T12:30:05.162Z,99870.13
2023-01-08T12:32:40.235Z,99858.59
2023-01-08T12:35:16.321Z,99857.63
2023-01-08T12:37:54.357Z,99866.16
2023-01-08T12:40:30.201Z,99857.94
2023-01-08T12:43:05.950Z,99850.75
2023-01-08T12:45:42.619Z,99849.91
2023-01-08T12:48:18.576Z,99851.22
2023-01-08T12:51:00.184Z,99851.22
2023-01-08T12:53:40.956Z,99847.66
2023-01-08T12:56:19.155Z,99844.91
2023-01-08T12:59:07.840Z,99845.97
2023-01-08T13:01:46.565Z,99845.22
2023-01-08T13:04:17.135Z,99836.50
2023-01-08T13:06:55.676Z,99842.38
2023-01-08T13:09:28.556Z,99845.44
2023-01-08T13:12:01.525Z,99835.47
2023-01-08T13:14:44.260Z,99843.97
2023-01-08T13:17:22.410Z,99830.69
2023-01-08T13:19:59.283Z,99828.66
2023-01-08T13:22:31.797Z,99829.03
2023-01-08T13:25:31.051Z,99827.81
2023-01-08T13:28:02.433Z,99820.56
2023-01-08T13:30:43.164Z,99825.91
2023-01-08T13:33:30.797Z,99835.97
2023-01-08T13:36:28.552Z,99833.75
2023-01-08T13:39:24.568Z,99834.06
2023-01-08T13:42:21.024Z,99828.81
2023-01-08T13:44:53.912Z,99827.97
2023-01-08T13:47:33.393Z,99825.88
2023-01-08T13:50:07.557Z,99830.28
2023-01-08T13:52:45.799Z,99829.31
2023-01-08T13:55:21.396Z,99827.34
2023-01-08T13:57:56.958Z,99815.97
2023-01-08T14:00:32.509Z,99822.44
2023-01-08T14:03:05.310Z,99812.41
2023-01-08T14:05:37.088Z,99812.06
2023-01-08T14:08:09.992Z,99821.41
2023-01-08T14:10:40.292Z,99817.34
2023-01-08T14:13:12.203Z,99813.09
2023-01-08T14:15:45.362Z,99815.53
2023-01-08T14:18:18.858Z,99807.22
2023-01-08T14:20:53.763Z,99801.84
2023-01-08T14:23:27.971Z,99798.81
2023-01-08T14:25:58.447Z,99807.28
2023-01-08T14:28:31.875Z,99800.34
2023-01-08T14:31:02.341Z,99797.81
2023-01-08T14:33:39.241Z,99796.75
2023-01-08T14:36:12.025Z,99797.63
2023-01-08T14:38:42.332Z,99801.81
2023-01-08T14:41:17.070Z,99789.41
2023-01-08T14:43:52.394Z,99785.19
2023-01-08T14:46:26.230Z,99796.03
2023-01-08T14:49:02.389Z,99792.34
2023-01-08T14:51:34.265Z,99786.84
2023-01-08T14:54:10.487Z,99788.88
2023-01-08T14:56:40.829Z,99785.31
2023-01-08T14:59:12.848Z,99785.16
2023-01-08T15:01:43.569Z,99778.84
2023-01-08T15:04:22.272Z,99785.00
2023-01-08T15:06:56.786Z,99785.94
2023-01-08T15:09:30.392Z,99786.16
2023-01-08T15:12:01.535Z,99794.41
2023-01-08T15:14:34.773Z,99789.44
2023-01-08T15:17:13.546Z,99786.84
2023-01-08T15:19:50.938Z,99785.31
2023-01-08T15:22:23.640Z,99783.16
2023-01-08T15:25:02.844Z,99793.25
2023-01-08T15:27:43.075Z,99782.38
2023-01-08T15:30:32.014Z,99775.47
2023-01-08T15:33:10.873Z,99774.63
2023-01-08T15:35:45.051Z,99771.47
2023-01-08T15:38:15.853Z,99774.84
2023-01-08T15:40:47.329Z,99775.78
2023-01-08T15:43:18.266Z,99772.81
2023-01-08T15:45:50.377Z,99762.63
2023-01-08T15:48:20.642Z,99760.25
2023-01-08T15:50:53.784Z,99761.81
2023-01-08T15:53:25.191Z,99761.69
2023-01-08T15:55:55.447Z,99756.22
2023-01-08T15:58:25.657Z,99757.56
2023-01-08T16:00:57.251Z,99758.63
2023-01-08T16:03:28.767Z,99755.78
2023-01-08T16:06:01.679Z,99762.09
2023-01-08T16:08:31.879Z,99751.34
2023-01-08T16:11:02.520Z,99761.75
2023-01-08T16:13:32.706Z,99753.88
2023-01-08T16:16:03.201Z,99753.31
2023-01-08T16:18:33.539Z,99747.69
2023-01-08T16:21:06.643Z,99754.31
2023-01-08T16:23:37.788Z,99752.38
2023-01-08T16:26:09.357Z,99752.63
2023-01-08T16:28:40.255Z,99748.84
2023-01-08T16:31:11.849Z,99736.47
2023-01-08T16:33:42.131Z,99750.00
2023-01-08T16:36:15.308Z,99745.25
2023-01-08T16:38:46.063Z,99741.66
2023-01-08T16:41:16.634Z,99747.66
2023-01-08T16:43:46.885Z,99728.63
2023-01-08T16:46:19.318Z,99736.41
2023-01-08T16:48:49.611Z,99733.66
2023-01-08T16:51:25.372Z,99732.81
2023-01-08T16:53:55.551Z,99711.88
2023-01-08T16:56:26.000Z,99722.66
2023-01-08T16:58:56.364Z,99719.69
2023-01-08T17:01:28.162Z,99716.44
2023-01-08T17:04:00.411Z,99716.56
2023-01-08T17:06:34.241Z,99712.28
2023-01-08T17:09:04.483Z,99712.28
2023-01-08T17:11:34.992Z,99706.31
2023-01-08T17:14:05.399Z,99719.19
2023-01-08T17:16:35.917Z,99705.69
2023-01-08T17:19:06.641Z,99711.44
2023-01-08T17:21:40.391Z,99705.22
2023-01-08T17:24:11.516Z,99716.56
2023-01-08T17:26:41.989Z,99698.31
2023-01-08T17:29:12.368Z,99697.47
2023-01-08T17:31:42.747Z,99709.28
2023-01-08T17:34:15.848Z,99700.56
2023-01-08T17:36:48.857Z,99710.00
2023-01-08T17:39:19.431Z,99700.44
2023-01-08T17:42:02.078Z,99697.69
2023-01-08T17:44:33.141Z,99685.50
2023-01-08T17:47:03.597Z,99685.38
2023-01-08T17:49:34.099Z,99683.59
2023-01-08T17:52:09.957Z,99688.84
2023-01-08T17:54:40.937Z,99693.16
2023-01-08T17:57:11.661Z,99688.13
2023-01-08T17:59:41.878Z,99688.47
2023-01-08T18:02:15.949Z,99679.75
2023-01-08T18:04:48.513Z,99688.97
2023-01-08T18:07:21.607Z,99683.72
2023-01-08T18:09:52.985Z,99682.53
2023-01-08T18:12:23.313Z,99682.41
2023-01-08T18:14:53.568Z,99690.91
2023-01-08T18:17:23.817Z,99680.63
2023-01-08T18:19:54.307Z,99683.00
2023-01-08T18:22:27.355Z,99681.59
2023-01-08T18:24:57.571Z,99676.78
2023-01-08T18:27:27.791Z,99683.00
2023-01-08T18:29:58.208Z,99678.69
2023-01-08T18:32:28.734Z,99686.09
2023-01-08T18:34:59.069Z,99679.88
2023-01-08T18:37:31.866Z,99679.66
2023-01-08T18:40:02.419Z,99672.72
2023-01-08T18:42:33.344Z,99673.69
2023-01-08T18:45:04.890Z,99678.81
2023-01-08T18:47:35.128Z,99677.75
2023-01-08T18:50:05.907Z,99669.84
2023-01-08T18:52:42.157Z,99672.72
2023-01-08T18:55:12.835Z,99674.41
2023-01-08T18:57:47.483Z,99665.91
2023-01-08T19:00:20.847Z,99668.31
2023-01-08T19:02:52.417Z,99660.06
2023-01-08T19:05:23.682Z,99662.81
2023-01-08T19:07:56.898Z,99651.44
2023-01-08T19:10:27.354Z,99656.72
2023-01-08T19:13:00.695Z,99660.28
2023-01-08T19:15:31.158Z,99659.91
2023-01-08T19:18:01.835Z,99659.56
2023-01-08T19:20:32.115Z,99657.78
2023-01-08T19:23:05.242Z,99660.41
2023-01-08T19:25:35.637Z,99655.28
2023-01-08T19:28:09.091Z,99648.44
2023-01-08T19:30:42.491Z,99655.16
2023-01-08T19:33:16.234Z,99649.16
2023-01-08T19:35:46.524Z,99642.00
2023-01-08T19:38:22.135Z,99640.69
2023-01-08T19:41:01.466Z,99645.84
2023-01-08T19:43:44.332Z,99643.22
2023-01-08T19:46:15.621Z,99651.69
2023-01-08T19:48:47.422Z,99635.56
2023-01-08T19:51:18.321Z,99638.06
2023-01-08T19:53:51.322Z,99642.25
2023-01-08T19:56:21.845Z,99639.63
2023-01-08T19:58:55.455Z,99637.94
2023-01-08T20:01:28.316Z,99630.06
2023-01-08T20:03:59.719Z,99622.63
2023-01-08T20:06:30.585Z,99620.97
2023-01-08T20:09:06.142Z,99618.22
2023-01-08T20:11:36.539Z,99620.97
2023-01-08T20:14:07.280Z,99606.59
2023-01-08T20:16:37.485Z,99620.97
2023-01-08T20:19:07.855Z,99619.28
2023-01-08T20:21:40.355Z,99615.69
2023-01-08T20:24:15.121Z,99606.25
2023-01-08T20:26:49.123Z,99609.00
2023-01-08T20:29:20.055Z,99615.34
2023-01-08T20:31:56.920Z,99605.28
2023-01-08T20:34:28.219Z,99599.44
2023-01-08T20:36:59.192Z,99597.88
2023-01-08T20:39:34.637Z,99597.75
2023-01-08T20:42:05.322Z,99587.72
2023-01-08T20:44:36.365Z,99595.25
2023-01-08T20:47:06.990Z,99591.06
2023-01-08T20:49:37.225Z,99594.53
2023-01-08T20:52:07.723Z,99593.56
2023-01-08T20:54:40.519Z,99583.06
2023-01-08T20:57:11.201Z,99585.69
2023-01-08T20:59:41.479Z,99581.38
2023-01-08T21:02:13.699Z,99581.38
2023-01-08T21:04:44.311Z,99577.06
2023-01-08T21:07:14.539Z,99576.63
2023-01-08T21:09:47.674Z,99580.66
2023-01-08T21:12:20.790Z,99584.50
2023-01-08T21:14:51.455Z,99576.75
2023-01-08T21:17:21.684Z,99564.88
2023-01-08T21:19:54.947Z,99567.66
2023-01-08T21:22:25.283Z,99573.38
2023-01-08T21:24:58.118Z,99573.50
2023-01-08T21:27:28.347Z,99574.22
2023-01-08T21:29:58.770Z,99581.25
2023-01-08T21:32:29.023Z,99568.47
2023-01-08T21:35:00.376Z,99571.81
2023-01-08T21:37:31.476Z,99566.44
2023-01-08T21:40:04.340Z,99558.56
2023-01-08T21:42:46.919Z,99563.81
2023-01-08T21:45:29.814Z,99555.81
2023-01-08T21:48:00.528Z,99548.88
2023-01-08T21:50:30.752Z,99555.69
2023-01-08T21:53:13.316Z,99541.81
2023-01-08T21:55:46.572Z,99540.03
2023-01-08T21:58:16.954Z,99539.06
2023-01-08T22:00:47.360Z,99538.13
2023-01-08T22:03:17.575Z,99533.69
2023-01-08T22:05:47.891Z,99531.53
2023-01-08T22:08:19.413Z,99536.69
2023-01-08T22:10:52.177Z,99529.16
2023-01-08T22:13:22.452Z,99531.78
2023-01-08T22:15:52.670Z,99525.69
2023-01-08T22:18:23.699Z,99525.69
2023-01-08T22:21:02.570Z,99516.84
2023-01-08T22:23:33.053Z,99511.69
2023-01-08T22:26:07.255Z,99499.38
2023-01-08T22:28:39.467Z,99482.53
2023-01-08T22:31:11.422Z,99493.66
2023-01-08T22:33:42.509Z,99485.56
2023-01-08T22:36:15.400Z,99490.56
2023-01-08T22:38:45.575Z,99487.78
2023-01-08T22:41:23.520Z,99486.84
2023-01-08T22:43:56.897Z,99485.16
2023-01-08T22:46:27.720Z,99486.28
2023-01-08T22:48:58.091Z,99490.56
2023-01-08T22:51:28.504Z,99500.81
2023-01-08T22:53:59.982Z,99504.78
2023-01-08T22:56:32.819Z,99493.75
2023-01-08T22:59:06.515Z,99494.38
2023-01-08T23:01:36.852Z,99486.47
2023-01-08T23:04:07.579Z,99493.66
2023-01-08T23:06:37.873Z,99477.66
2023-01-08T23:09:08.031Z,99479.91
2023-01-08T23:11:41.036Z,99478.81
2023-01-08T23:14:12.593Z,99478.00
2023-01-08T23:16:42.944Z,99480.50
2023-01-08T23:19:14.630Z,99470.81
2023-01-08T23:21:44.803Z,99469.16
2023-01-08T23:24:16.485Z,99477.03
2023-01-08T23:26:49.379Z,99466.63
2023-01-08T23:29:19.610Z,99470.09
2023-01-08T23:31:50.110Z,99469.84
2023-01-08T23:34:20.506Z,99462.94
2023-01-08T23:36:50.656Z,99460.19
2023-01-08T23:39:26.764Z,99457.53
2023-01-08T23:41:59.558Z,99450.50
2023-01-08T23:44:29.789Z,99447.16
2023-01-08T23:46:59.995Z,99446.44
2023-01-08T23:49:30.254Z,99448.09
2023-01-08T23:52:00.449Z,99440.22
2023-01-08T23:54:30.994Z,99437.72
2023-01-08T23:57:06.163Z,99441.06
2023-01-08T23:59:36.399Z,99435.78
